Time;durP1;ratioP1;P1;durP2;ratioP2;P2;SDS_P1;SDS_P2;PMS_P1;PMS_P2;Temp;Humidity;BMP_temperature;BMP_pressure;BME280_temperature;BME280_humidity;BME280_pressure;Samples;Min_cycle;Max_cycle;Signal;HPM_P1;HPM_P2
2022/04/28 00:02:09;;;;;;;;;;;;;;;;;;5038365;28;19970;-26
2022/04/28 00:04:35;;;;;;;;;;;;;;;;;;5037890;28;19921;-26
2022/04/28 00:07:01;;;;;;;;;;;;;;;;;;5038053;28;19909;-26
2022/04/28 00:09:27;;;;;;;;;;;;;;;;;;5038218;28;20371;-26
2022/04/28 00:11:53;;;;;;;;;;;;;;;;;;5038506;28;19913;-26
2022/04/28 00:14:19;;;;;;;;;;;;;;;;;;5037908;28;19920;-26
2022/04/28 00:16:45;;;;;;;;;;;;;;;;;;5037812;28;19949;-26
2022/04/28 00:19:11;;;;;;;;;;;;;;;;;;5037822;28;19959;-26
2022/04/28 00:21:37;;;;;;;;;;;;;;;;;;5038048;28;19921;-26
2022/04/28 00:24:03;;;;;;;;;;;;;;;;;;5037954;28;19913;-26
2022/04/28 00:26:29;;;;;;;;;;;;;;;;;;5037673;28;20259;-26
2022/04/28 00:28:55;;;;;;;;;;;;;;;;;;5037838;28;19917;-26
2022/04/28 00:31:21;;;;;;;;;;;;;;;;;;5038100;28;19951;-26
2022/04/28 00:33:48;;;;;;;;;;;;;;;;;;5037396;28;19917;-26
2022/04/28 00:36:14;;;;;;;;;;;;;;;;;;5037754;28;19913;-26
2022/04/28 00:38:40;;;;;;;;;;;;;;;;;;5037993;28;19913;-26
2022/04/28 00:41:06;;;;;;;;;;;;;;;;;;5037377;28;19967;-26
2022/04/28 00:43:32;;;;;;;;;;;;;;;;;;5037561;28;19924;-26
2022/04/28 00:45:58;;;;;;;;;;;;;;;;;;5037335;28;19995;-26
2022/04/28 00:51:09;;;;;;;;;;;;;;;;;;5037320;28;20340;-26
2022/04/28 00:53:35;;;;;;;;;;;;;;;;;;5037152;28;19913;-27
2022/04/28 00:56:01;;;;;;;;;;;;;;;;;;5037428;28;19909;-27
2022/04/28 00:58:27;;;;;;;;;;;;;;;;;;5019664;28;19970;-26
2022/04/28 01:00:56;;;;;;;;;;;;;;;;;;5036489;28;19920;-26
2022/04/28 01:03:22;;;;;;;;;;;;;;;;;;5036628;28;19924;-26
2022/04/28 01:05:48;;;;;;;;;;;;;;;;;;5037537;28;20004;-26
2022/04/28 01:08:14;;;;;;;;;;;;;;;;;;5036877;28;20260;-26
2022/04/28 01:10:39;;;;;;;;;;;;;;;;;;5036856;28;20011;-26
2022/04/28 01:13:05;;;;;;;;;;;;;;;;;;5036777;28;19913;-26
2022/04/28 01:15:31;;;;;;;;;;;;;;;;;;5037371;28;19963;-26
2022/04/28 01:17:57;;;;;;;;;;;;;;;;;;5036748;28;19913;-26
2022/04/28 01:20:23;;;;;;;;;;;;;;;;;;5036981;28;19917;-26
2022/04/28 01:22:49;;;;;;;;;;;;;;;;;;5036715;28;19924;-26
2022/04/28 01:25:15;;;;;;;;;;;;;;;;;;5036614;28;19975;-26
2022/04/28 01:27:41;;;;;;;;;;;;;;;;;;5036488;28;19913;-26
2022/04/28 01:30:07;;;;;;;;;;;;;;;;;;5036481;28;19924;-26
2022/04/28 01:32:33;;;;;;;;;;;;;;;;;;5036394;28;19913;-26
2022/04/28 01:34:59;;;;;;;;;;;;;;;;;;5036694;28;19917;-27
2022/04/28 01:37:25;;;;;;;;;;;;;;;;;;5036900;28;19913;-26
2022/04/28 01:39:51;;;;;;;;;;;;;;;;;;5036613;28;20352;-26
2022/04/28 01:42:17;;;;;;;;;;;;;;;;;;5036183;28;19920;-26
2022/04/28 01:44:43;;;;;;;;;;;;;;;;;;5036467;28;20332;-26
2022/04/28 01:47:09;;;;;;;;;;;;;;;;;;5036393;28;19920;-26
2022/04/28 01:49:35;;;;;;;;;;;;;;;;;;5036705;28;19913;-26
2022/04/28 01:54:58;;;;;;;;;;;;;;;;;;5036101;28;20314;-26
2022/04/28 01:57:24;;;;;;;;;;;;;;;;;;5036003;28;20047;-26
2022/04/28 01:59:51;;;;;;;;;;;;;;;;;;5035939;28;20028;-26
2022/04/28 02:02:17;;;;;;;;;;;;;;;;;;5036251;28;19924;-26
2022/04/28 02:04:43;;;;;;;;;;;;;;;;;;5035694;28;20380;-26
2022/04/28 02:07:09;;;;;;;;;;;;;;;;;;5035798;28;20352;-26
2022/04/28 02:09:34;;;;;;;;;;;;;;;;;;5035689;28;19985;-26
2022/04/28 02:12:00;;;;;;;;;;;;;;;;;;5035893;28;19913;-26
2022/04/28 02:14:26;;;;;;;;;;;;;;;;;;5036239;28;20374;-26
2022/04/28 02:16:52;;;;;;;;;;;;;;;;;;5035674;28;19966;-27
2022/04/28 02:19:18;;;;;;;;;;;;;;;;;;5035880;28;20298;-26
2022/04/28 02:21:44;;;;;;;;;;;;;;;;;;5035546;28;19919;-26
2022/04/28 02:24:10;;;;;;;;;;;;;;;;;;5035456;28;19968;-26
2022/04/28 02:26:36;;;;;;;;;;;;;;;;;;5035491;28;19953;-26
2022/04/28 02:29:02;;;;;;;;;;;;;;;;;;5035929;28;19924;-26
2022/04/28 02:31:28;;;;;;;;;;;;;;;;;;5035418;28;19912;-26
2022/04/28 02:33:54;;;;;;;;;;;;;;;;;;5035338;28;19966;-26
2022/04/28 02:36:20;;;;;;;;;;;;;;;;;;5035645;28;19909;-26
2022/04/28 02:38:46;;;;;;;;;;;;;;;;;;5035302;28;19913;-26
2022/04/28 02:41:19;;;;;;;;;;;;;;;;;;5035548;28;20368;-26
2022/04/28 02:43:45;;;;;;;;;;;;;;;;;;5035448;28;19913;-26
2022/04/28 02:46:11;;;;;;;;;;;;;;;;;;5035215;28;19932;-26
2022/04/28 02:48:37;;;;;;;;;;;;;;;;;;5035149;28;20307;-26
2022/04/28 02:51:04;;;;;;;;;;;;;;;;;;5035099;28;19978;-26
2022/04/28 02:53:30;;;;;;;;;;;;;;;;;;5035388;28;19963;-26
2022/04/28 02:55:56;;;;;;;;;;;;;;;;;;5035438;28;19913;-26
2022/04/28 02:58:22;;;;;;;;;;;;;;;;;;5035158;28;19939;-26
2022/04/28 03:00:48;;;;;;;;;;;;;;;;;;5035080;28;19913;-26
2022/04/28 03:03:14;;;;;;;;;;;;;;;;;;5035006;28;19925;-26
2022/04/28 03:11:09;;;;;;;;;;;;;;;;;;5035324;28;19920;-26
2022/04/28 03:13:35;;;;;;;;;;;;;;;;;;5034868;28;19917;-26
2022/04/28 03:16:01;;;;;;;;;;;;;;;;;;5034942;28;19975;-26
2022/04/28 03:18:27;;;;;;;;;;;;;;;;;;5035237;28;20363;-26
2022/04/28 03:20:54;;;;;;;;;;;;;;;;;;5035951;28;19940;-26
2022/04/28 03:23:20;;;;;;;;;;;;;;;;;;5035920;28;19909;-26
2022/04/28 03:25:46;;;;;;;;;;;;;;;;;;5039100;28;19920;-26
2022/04/28 03:28:12;;;;;;;;;;;;;;;;;;5039039;28;19956;-26
2022/04/28 03:30:38;;;;;;;;;;;;;;;;;;5039020;28;19944;-26
2022/04/28 03:33:04;;;;;;;;;;;;;;;;;;5038582;28;20380;-26
2022/04/28 03:35:30;;;;;;;;;;;;;;;;;;5039450;28;19913;-26
2022/04/28 03:37:59;;;;;;;;;;;;;;;;;;5038629;28;20248;-26
2022/04/28 03:40:25;;;;;;;;;;;;;;;;;;5038831;28;20239;-26
2022/04/28 03:42:51;;;;;;;;;;;;;;;;;;5038687;28;19999;-26
2022/04/28 03:45:17;;;;;;;;;;;;;;;;;;5038457;28;19913;-26
2022/04/28 03:47:43;;;;;;;;;;;;;;;;;;5038590;28;20228;-26
2022/04/28 03:50:09;;;;;;;;;;;;;;;;;;5038396;28;20003;-26
2022/04/28 03:52:35;;;;;;;;;;;;;;;;;;5038259;28;19967;-26
2022/04/28 03:55:01;;;;;;;;;;;;;;;;;;5038843;28;19917;-26
2022/04/28 03:57:27;;;;;;;;;;;;;;;;;;5038226;28;20217;-26
2022/04/28 03:59:53;;;;;;;;;;;;;;;;;;5038212;28;19914;-26
2022/04/28 04:02:19;;;;;;;;;;;;;;;;;;5038238;28;19913;-26
2022/04/28 04:04:45;;;;;;;;;;;;;;;;;;5037790;28;19944;-26
2022/04/28 04:07:11;;;;;;;;;;;;;;;;;;5037884;28;19936;-27
2022/04/28 04:09:37;;;;;;;;;;;;;;;;;;5037716;28;20060;-27
2022/04/28 04:12:05;;;;;;;;;;;;;;;;;;5037569;28;20122;-30
2022/04/28 04:14:32;;;;;;;;;;;;;;;;;;5038054;28;19917;-26
2022/04/28 04:16:58;;;;;;;;;;;;;;;;;;5037986;28;19913;-26
2022/04/28 04:19:24;;;;;;;;;;;;;;;;;;5037664;28;19917;-26
2022/04/28 04:21:50;;;;;;;;;;;;;;;;;;5037614;28;19932;-27
2022/04/28 04:24:16;;;;;;;;;;;;;;;;;;5038093;28;19913;-26
2022/04/28 04:26:42;;;;;;;;;;;;;;;;;;5037432;28;20310;-26
2022/04/28 04:29:08;;;;;;;;;;;;;;;;;;5037371;28;19960;-26
2022/04/28 04:34:19;;;;;;;;;;;;;;;;;;5037493;28;19920;-26
2022/04/28 04:36:45;;;;;;;;;;;;;;;;;;5037862;28;20323;-26
2022/04/28 04:39:11;;;;;;;;;;;;;;;;;;5037510;28;19913;-26
2022/04/28 04:41:37;;;;;;;;;;;;;;;;;;5037151;28;19913;-26
2022/04/28 04:44:03;;;;;;;;;;;;;;;;;;5037159;28;19939;-26
2022/04/28 04:46:29;;;;;;;;;;;;;;;;;;5037085;28;19917;-26
2022/04/28 04:48:55;;;;;;;;;;;;;;;;;;5037872;28;20051;-27
2022/04/28 04:51:21;;;;;;;;;;;;;;;;;;5037358;28;19920;-27
2022/04/28 04:53:47;;;;;;;;;;;;;;;;;;5037082;28;19909;-27
2022/04/28 04:56:13;;;;;;;;;;;;;;;;;;5037157;28;19983;-27
2022/04/28 04:58:39;;;;;;;;;;;;;;;;;;5037257;28;19924;-27
2022/04/28 05:01:06;;;;;;;;;;;;;;;;;;5037011;28;20251;-27
2022/04/28 05:03:32;;;;;;;;;;;;;;;;;;5036216;28;19928;-27
2022/04/28 05:05:58;;;;;;;;;;;;;;;;;;5036800;28;19920;-27
2022/04/28 05:08:24;;;;;;;;;;;;;;;;;;5036698;28;20262;-28
2022/04/28 05:10:51;;;;;;;;;;;;;;;;;;5036962;28;20260;-27
2022/04/28 05:13:17;;;;;;;;;;;;;;;;;;5036759;28;19919;-27
2022/04/28 05:15:47;;;;;;;;;;;;;;;;;;5036681;28;19917;-27
2022/04/28 05:18:13;;;;;;;;;;;;;;;;;;5019264;28;19974;-27
2022/04/28 05:20:39;;;;;;;;;;;;;;;;;;5036405;28;19921;-27
2022/04/28 05:23:05;;;;;;;;;;;;;;;;;;5036320;28;19913;-27
2022/04/28 05:25:31;;;;;;;;;;;;;;;;;;5036477;28;19910;-27
2022/04/28 05:27:57;;;;;;;;;;;;;;;;;;5036652;28;19917;-27
2022/04/28 05:30:23;;;;;;;;;;;;;;;;;;5036385;28;19909;-27
2022/04/28 05:32:49;;;;;;;;;;;;;;;;;;5036314;28;19913;-27
2022/04/28 05:35:14;;;;;;;;;;;;;;;;;;5036414;28;19924;-27
2022/04/28 05:37:41;;;;;;;;;;;;;;;;;;5036300;28;19913;-27
2022/04/28 05:40:07;;;;;;;;;;;;;;;;;;5036267;28;20032;-27
2022/04/28 05:48:06;;;;;;;;;;;;;;;;;;5036065;28;19979;-27
2022/04/28 05:50:33;;;;;;;;;;;;;;;;;;5035952;28;20348;-27
2022/04/28 05:52:59;;;;;;;;;;;;;;;;;;5018427;28;19978;-27
2022/04/28 05:55:25;;;;;;;;;;;;;;;;;;5035909;28;20007;-27
2022/04/28 05:57:51;;;;;;;;;;;;;;;;;;5035982;28;19921;-27
2022/04/28 06:03:01;;;;;;;;;;;;;;;;;;5488776;22;19971;-24
2022/04/28 06:05:27;;;;;;;;;;;;;;;;;;5036090;28;19913;-25
2022/04/28 06:07:53;;;;;;;;;;;;;;;;;;5035690;28;20255;-25
2022/04/28 06:10:19;;;;;;;;;;;;;;;;;;5035691;28;19913;-24
2022/04/28 06:12:45;;;;;;;;;;;;;;;;;;5035555;28;20367;-25
2022/04/28 06:15:13;;;;;;;;;;;;;;;;;;5035840;28;19920;-26
2022/04/28 06:17:39;;;;;;;;;;;;;;;;;;5035624;28;19913;-25
2022/04/28 06:20:05;;;;;;;;;;;;;;;;;;5035589;28;19913;-25
2022/04/28 06:22:31;;;;;;;;;;;;;;;;;;5035742;28;19924;-25
2022/04/28 06:24:58;;;;;;;;;;;;;;;;;;5035428;28;19913;-25
2022/04/28 06:27:24;;;;;;;;;;;;;;;;;;5035362;28;19909;-25
2022/04/28 06:29:52;;;;;;;;;;;;;;;;;;5035291;28;19924;-25
2022/04/28 06:32:17;;;;;;;;;;;;;;;;;;5035822;28;19936;-25
2022/04/28 06:34:44;;;;;;;;;;;;;;;;;;5035524;28;19909;-24
2022/04/28 06:37:10;;;;;;;;;;;;;;;;;;5035419;28;20095;-25
2022/04/28 06:39:36;;;;;;;;;;;;;;;;;;5035198;28;20369;-24
2022/04/28 06:42:02;;;;;;;;;;;;;;;;;;5035090;28;20255;-25
2022/04/28 06:44:28;;;;;;;;;;;;;;;;;;5035085;28;19920;-26
2022/04/28 06:46:54;;;;;;;;;;;;;;;;;;5018263;28;19909;-26
2022/04/28 06:49:20;;;;;;;;;;;;;;;;;;5034960;28;19921;-26
2022/04/28 06:51:46;;;;;;;;;;;;;;;;;;5035034;28;19917;-25
2022/04/28 06:54:12;;;;;;;;;;;;;;;;;;5035032;28;19940;-25
2022/04/28 06:56:38;;;;;;;;;;;;;;;;;;5034953;28;19913;-26
2022/04/28 06:59:04;;;;;;;;;;;;;;;;;;5033976;28;19913;-26
2022/04/28 07:01:31;;;;;;;;;;;;;;;;;;5034854;28;20371;-26
2022/04/28 07:03:57;;;;;;;;;;;;;;;;;;5034588;28;20422;-25
2022/04/28 07:06:22;;;;;;;;;;;;;;;;;;5035343;28;19913;-26
2022/04/28 07:08:49;;;;;;;;;;;;;;;;;;5034800;28;19917;-25
2022/04/28 07:11:15;;;;;;;;;;;;;;;;;;5017279;28;19928;-25
2022/04/28 07:13:41;;;;;;;;;;;;;;;;;;5034757;28;19910;-25
2022/04/28 07:16:07;;;;;;;;;;;;;;;;;;5034869;28;19920;-25
2022/04/28 07:18:33;;;;;;;;;;;;;;;;;;5035337;28;19913;-25
2022/04/28 07:20:59;;;;;;;;;;;;;;;;;;5035281;28;20348;-24
2022/04/28 07:23:25;;;;;;;;;;;;;;;;;;5017231;28;19924;-25
2022/04/28 07:25:51;;;;;;;;;;;;;;;;;;5017306;28;19975;-25
2022/04/28 07:28:17;;;;;;;;;;;;;;;;;;5034657;28;20315;-25
2022/04/28 07:30:43;;;;;;;;;;;;;;;;;;5035186;28;19909;-26
2022/04/28 07:33:11;;;;;;;;;;;;;;;;;;5034545;28;20004;-26
2022/04/28 07:35:37;;;;;;;;;;;;;;;;;;5034551;28;19913;-25
2022/04/28 07:38:03;;;;;;;;;;;;;;;;;;5035092;28;20355;-26
2022/04/28 07:40:29;;;;;;;;;;;;;;;;;;5034718;28;19921;-26
2022/04/28 07:42:55;;;;;;;;;;;;;;;;;;5034417;28;20012;-26
2022/04/28 07:45:22;;;;;;;;;;;;;;;;;;5034533;28;20048;-26
2022/04/28 07:47:49;;;;;;;;;;;;;;;;;;5034921;28;19913;-25
2022/04/28 07:50:15;;;;;;;;;;;;;;;;;;5034372;28;19912;-26
2022/04/28 07:52:41;;;;;;;;;;;;;;;;;;5034436;28;20255;-25
2022/04/28 07:55:07;;;;;;;;;;;;;;;;;;5034365;28;19936;-25
2022/04/28 07:57:33;;;;;;;;;;;;;;;;;;5034528;28;20310;-25
2022/04/28 07:59:59;;;;;;;;;;;;;;;;;;5034481;28;19917;-32
2022/04/28 08:02:26;;;;;;;;;;;;;;;;;;5034362;28;19909;-26
2022/04/28 08:04:52;;;;;;;;;;;;;;;;;;5034399;28;19923;-25
2022/04/28 08:07:18;;;;;;;;;;;;;;;;;;5034310;28;20003;-25
2022/04/28 08:09:44;;;;;;;;;;;;;;;;;;5018508;28;20000;-25
2022/04/28 08:12:10;;;;;;;;;;;;;;;;;;5037752;28;19921;-25
2022/04/28 08:14:37;;;;;;;;;;;;;;;;;;5037814;28;19913;-26
2022/04/28 08:17:03;;;;;;;;;;;;;;;;;;5037570;28;19932;-25
2022/04/28 08:19:30;;;;;;;;;;;;;;;;;;5037970;28;19913;-25
2022/04/28 08:21:56;;;;;;;;;;;;;;;;;;5037584;28;20367;-25
2022/04/28 08:24:22;;;;;;;;;;;;;;;;;;5037784;28;19967;-26
2022/04/28 08:49:01;;;;;;;;;;;;;;;;;;4997688;28;19980;-32
2022/04/28 08:51:27;;;;;;;;;;;;;;;;;;4997619;28;19914;-33
2022/04/28 08:53:53;;;;;;;;;;;;;;;;;;4997925;28;20289;-32
2022/04/28 08:56:19;;;;;;;;;;;;;;;;;;4997721;28;20004;-33
2022/04/28 08:58:45;;;;;;;;;;;;;;;;;;4998121;28;19917;-32
2022/04/28 09:01:11;;;;;;;;;;;;;;;;;;4997539;28;19914;-33
2022/04/28 09:03:37;;;;;;;;;;;;;;;;;;4997652;28;19914;-31
2022/04/28 09:06:03;;;;;;;;;;;;;;;;;;4998078;28;19961;-32
2022/04/28 09:08:30;;;;;;;;;;;;;;;;;;4997666;28;20428;-34
2022/04/28 09:11:00;;;;;;;;;;;;;;;;;;4997249;28;20013;-32
2022/04/28 09:16:11;;;;;;;;;;;;;;;;;;4997431;28;19920;-33
2022/04/28 09:18:37;;;;;;;;;;;;;;;;;;4997109;28;19921;-33
2022/04/28 09:21:04;;;;;;;;;;;;;;;;;;4996564;28;19921;-34
2022/04/28 09:23:30;;;;;;;;;;;;;;;;;;4997121;28;19985;-33
2022/04/28 09:25:56;;;;;;;;;;;;;;;;;;4979948;28;20357;-32
2022/04/28 09:28:22;;;;;;;;;;;;;;;;;;4996730;28;19921;-33
2022/04/28 09:30:49;;;;;;;;;;;;;;;;;;4996984;28;19918;-33
2022/04/28 09:33:15;;;;;;;;;;;;;;;;;;4996838;28;20297;-34
2022/04/28 09:35:41;;;;;;;;;;;;;;;;;;4997335;28;19914;-32
2022/04/28 09:38:07;;;;;;;;;;;;;;;;;;4996690;28;19925;-32
2022/04/28 09:43:18;;;;;;;;;;;;;;;;;;4996624;28;19975;-32
2022/04/28 09:45:44;;;;;;;;;;;;;;;;;;4996773;28;20005;-31
2022/04/28 09:48:10;;;;;;;;;;;;;;;;;;4996383;28;19979;-32
2022/04/28 09:50:36;;;;;;;;;;;;;;;;;;4996439;28;19914;-31
2022/04/28 09:53:02;;;;;;;;;;;;;;;;;;4979317;28;20004;-32
2022/04/28 09:55:28;;;;;;;;;;;;;;;;;;4996321;28;19918;-32
2022/04/28 09:57:54;;;;;;;;;;;;;;;;;;4996319;28;19925;-32
2022/04/28 10:00:21;;;;;;;;;;;;;;;;;;4996523;28;20268;-31
2022/04/28 10:02:47;;;;;;;;;;;;;;;;;;4996396;28;19961;-32
2022/04/28 10:05:14;;;;;;;;;;;;;;;;;;4996119;28;19956;-31
2022/04/28 10:07:40;;;;;;;;;;;;;;;;;;4995996;28;19918;-32
2022/04/28 10:10:06;;;;;;;;;;;;;;;;;;4996049;28;20353;-32
2022/04/28 10:12:32;;;;;;;;;;;;;;;;;;4996179;28;20005;-32
2022/04/28 10:14:58;;;;;;;;;;;;;;;;;;4996036;28;19922;-31
2022/04/28 10:17:25;;;;;;;;;;;;;;;;;;4995971;28;19909;-32
2022/04/28 10:19:51;;;;;;;;;;;;;;;;;;4995939;28;19914;-32
2022/04/28 10:22:17;;;;;;;;;;;;;;;;;;4995693;28;19988;-33
2022/04/28 10:33:13;;;;;;;;;;;;;;;;;;4990608;28;19980;-31
2022/04/28 10:35:39;;;;;;;;;;;;;;;;;;4995794;28;19917;-31
2022/04/28 10:38:06;;;;;;;;;;;;;;;;;;4996356;28;20210;-33
2022/04/28 10:40:32;;;;;;;;;;;;;;;;;;4995749;28;20067;-31
2022/04/28 10:42:59;;;;;;;;;;;;;;;;;;4995594;28;19968;-32
2022/04/28 10:45:28;;;;;;;;;;;;;;;;;;4995649;28;19925;-33
2022/04/28 10:47:54;;;;;;;;;;;;;;;;;;4995452;28;19925;-32
2022/04/28 10:50:20;;;;;;;;;;;;;;;;;;4995560;28;19921;-32
2022/04/28 10:52:46;;;;;;;;;;;;;;;;;;4995452;28;19910;-32
2022/04/28 10:55:12;;;;;;;;;;;;;;;;;;4995710;28;19929;-32
2022/04/28 10:57:38;;;;;;;;;;;;;;;;;;4995522;28;20300;-30
2022/04/28 11:00:05;;;;;;;;;;;;;;;;;;4995793;28;19922;-31
2022/04/28 11:02:32;;;;;;;;;;;;;;;;;;4995665;28;19995;-32
2022/04/28 11:05:01;;;;;;;;;;;;;;;;;;4995530;28;20016;-32
2022/04/28 11:07:28;;;;;;;;;;;;;;;;;;4995438;28;19920;-32
2022/04/28 11:09:55;;;;;;;;;;;;;;;;;;4996100;28;19918;-32
2022/04/28 11:12:21;;;;;;;;;;;;;;;;;;4996006;28;19910;-30
2022/04/28 11:14:47;;;;;;;;;;;;;;;;;;4995281;28;19914;-31
2022/04/28 11:17:13;;;;;;;;;;;;;;;;;;4995380;28;19914;-31
2022/04/28 11:19:39;;;;;;;;;;;;;;;;;;4995424;28;20040;-31
2022/04/28 11:22:05;;;;;;;;;;;;;;;;;;4995350;28;20444;-32
2022/04/28 11:24:32;;;;;;;;;;;;;;;;;;4995280;28;19964;-32
2022/04/28 11:26:58;;;;;;;;;;;;;;;;;;4996003;28;19928;-31
2022/04/28 11:29:24;;;;;;;;;;;;;;;;;;4995238;28;19917;-33
2022/04/28 11:31:51;;;;;;;;;;;;;;;;;;4995107;28;19992;-33
2022/04/28 11:34:18;;;;;;;;;;;;;;;;;;4995155;28;20084;-32
2022/04/28 11:36:45;;;;;;;;;;;;;;;;;;4995281;28;19910;-33
2022/04/28 11:39:10;;;;;;;;;;;;;;;;;;4977986;28;20380;-33
2022/04/28 11:41:38;;;;;;;;;;;;;;;;;;4995566;28;19913;-34
2022/04/28 11:44:06;;;;;;;;;;;;;;;;;;4995930;28;19917;-33
2022/04/28 11:46:32;;;;;;;;;;;;;;;;;;4998789;28;20045;-32
2022/04/28 11:48:58;;;;;;;;;;;;;;;;;;4999415;28;19918;-33
2022/04/28 11:51:27;;;;;;;;;;;;;;;;;;4998731;28;19921;-32
2022/04/28 11:53:53;;;;;;;;;;;;;;;;;;4998666;28;19910;-33
2022/04/28 11:56:19;;;;;;;;;;;;;;;;;;4998670;28;19940;-31
2022/04/28 11:58:46;;;;;;;;;;;;;;;;;;4998582;28;19910;-32
2022/04/28 12:01:13;;;;;;;;;;;;;;;;;;4998567;28;19914;-33
2022/04/28 12:03:39;;;;;;;;;;;;;;;;;;4998403;28;19976;-30
2022/04/28 12:06:05;;;;;;;;;;;;;;;;;;4998919;28;19980;-32
2022/04/28 12:08:30;;;;;;;;;;;;;;;;;;4998765;28;20363;-32
2022/04/28 12:19:20;;;;;;;;;;;;;;;;;;4998523;28;20395;-31
2022/04/28 12:21:46;;;;;;;;;;;;;;;;;;4998776;28;19988;-32
2022/04/28 12:24:12;;;;;;;;;;;;;;;;;;4998302;28;20345;-32
2022/04/28 12:26:39;;;;;;;;;;;;;;;;;;4998284;28;19960;-32
2022/04/28 12:29:05;;;;;;;;;;;;;;;;;;4998096;28;19953;-33
2022/04/28 12:31:32;;;;;;;;;;;;;;;;;;4998440;28;20268;-31
2022/04/28 12:33:58;;;;;;;;;;;;;;;;;;4998188;28;19918;-32
2022/04/28 12:36:24;;;;;;;;;;;;;;;;;;4998053;28;20341;-31
2022/04/28 12:38:52;;;;;;;;;;;;;;;;;;4998232;28;19971;-32
2022/04/28 12:41:18;;;;;;;;;;;;;;;;;;4997877;28;19914;-31
2022/04/28 12:43:48;;;;;;;;;;;;;;;;;;4998046;28;20233;-31
2022/04/28 12:46:15;;;;;;;;;;;;;;;;;;4997746;28;19925;-33
2022/04/28 12:48:41;;;;;;;;;;;;;;;;;;4998073;28;19918;-31
2022/04/28 12:51:07;;;;;;;;;;;;;;;;;;4997648;28;20248;-31
2022/04/28 12:53:33;;;;;;;;;;;;;;;;;;4997804;28;20016;-31
2022/04/28 12:55:59;;;;;;;;;;;;;;;;;;4997482;28;20349;-32
2022/04/28 12:58:25;;;;;;;;;;;;;;;;;;4997537;28;19933;-33
2022/04/28 13:00:51;;;;;;;;;;;;;;;;;;4998158;28;19917;-32
2022/04/28 13:03:17;;;;;;;;;;;;;;;;;;4997421;28;19913;-33
2022/04/28 13:05:43;;;;;;;;;;;;;;;;;;4997454;28;20349;-33
2022/04/28 13:08:09;;;;;;;;;;;;;;;;;;4997604;28;20358;-34
2022/04/28 13:10:35;;;;;;;;;;;;;;;;;;4997163;28;19914;-32
2022/04/28 13:13:01;;;;;;;;;;;;;;;;;;4997079;28;19910;-31
2022/04/28 13:15:27;;;;;;;;;;;;;;;;;;4997140;28;19972;-32
2022/04/28 13:17:53;;;;;;;;;;;;;;;;;;4997408;28;19910;-32
2022/04/28 13:20:19;;;;;;;;;;;;;;;;;;4997117;28;19914;-32
2022/04/28 13:22:46;;;;;;;;;;;;;;;;;;4997389;28;19921;-31
2022/04/28 13:25:13;;;;;;;;;;;;;;;;;;4997087;28;19915;-31
2022/04/28 13:27:39;;;;;;;;;;;;;;;;;;4997541;28;19929;-31
2022/04/28 13:30:05;;;;;;;;;;;;;;;;;;4996998;28;19924;-31
2022/04/28 13:32:31;;;;;;;;;;;;;;;;;;4996974;28;19910;-32
2022/04/28 13:34:57;;;;;;;;;;;;;;;;;;4979825;28;19914;-31
2022/04/28 13:37:22;;;;;;;;;;;;;;;;;;4996879;28;19914;-31
2022/04/28 13:39:48;;;;;;;;;;;;;;;;;;4996834;28;19925;-32
2022/04/28 13:42:15;;;;;;;;;;;;;;;;;;4996738;28;19914;-32
2022/04/28 13:44:40;;;;;;;;;;;;;;;;;;4997338;28;19913;-31
2022/04/28 13:47:07;;;;;;;;;;;;;;;;;;4996479;28;19928;-32
2022/04/28 13:49:33;;;;;;;;;;;;;;;;;;4996800;28;20008;-31
2022/04/28 13:51:59;;;;;;;;;;;;;;;;;;4996777;28;19949;-31
2022/04/28 13:54:25;;;;;;;;;;;;;;;;;;4996871;28;19921;-30
2022/04/28 13:56:51;;;;;;;;;;;;;;;;;;4996496;28;20238;-32
2022/04/28 13:59:17;;;;;;;;;;;;;;;;;;4996593;28;19909;-33
2022/04/28 14:01:43;;;;;;;;;;;;;;;;;;4996612;28;20269;-33
2022/04/28 14:04:09;;;;;;;;;;;;;;;;;;4996474;28;19916;-31
2022/04/28 14:06:35;;;;;;;;;;;;;;;;;;4996254;28;19914;-30
2022/04/28 14:09:01;;;;;;;;;;;;;;;;;;4996177;28;19914;-31
2022/04/28 14:11:27;;;;;;;;;;;;;;;;;;4996227;28;20354;-31
2022/04/28 14:13:53;;;;;;;;;;;;;;;;;;4996172;28;19910;-32
2022/04/28 14:16:19;;;;;;;;;;;;;;;;;;4996116;28;19917;-32
2022/04/28 14:18:45;;;;;;;;;;;;;;;;;;4996223;28;19921;-32
2022/04/28 14:21:12;;;;;;;;;;;;;;;;;;4996119;28;19914;-32
2022/04/28 14:23:38;;;;;;;;;;;;;;;;;;4995896;28;20001;-32
2022/04/28 14:26:04;;;;;;;;;;;;;;;;;;4995875;28;19949;-31
2022/04/28 14:28:30;;;;;;;;;;;;;;;;;;4996585;28;19980;-32
2022/04/28 14:30:56;;;;;;;;;;;;;;;;;;4995942;28;19918;-32
2022/04/28 14:33:22;;;;;;;;;;;;;;;;;;4996513;28;19969;-31
2022/04/28 14:35:48;;;;;;;;;;;;;;;;;;4995866;28;19925;-32
2022/04/28 14:38:18;;;;;;;;;;;;;;;;;;4995813;28;20275;-32
2022/04/28 14:40:44;;;;;;;;;;;;;;;;;;4995715;28;19921;-31
2022/04/28 14:43:10;;;;;;;;;;;;;;;;;;4995767;28;19914;-31
2022/04/28 14:45:37;;;;;;;;;;;;;;;;;;4995459;28;19918;-31
2022/04/28 14:48:03;;;;;;;;;;;;;;;;;;4995683;28;19961;-33
2022/04/28 14:53:14;;;;;;;;;;;;;;;;;;4995657;28;19973;-32
2022/04/28 14:55:39;;;;;;;;;;;;;;;;;;4995870;28;20221;-31
2022/04/28 14:58:09;;;;;;;;;;;;;;;;;;4995613;28;19909;-31
2022/04/28 15:00:34;;;;;;;;;;;;;;;;;;4995876;28;19968;-32
2022/04/28 15:03:01;;;;;;;;;;;;;;;;;;4995524;28;20268;-31
2022/04/28 15:05:27;;;;;;;;;;;;;;;;;;4995528;28;20357;-31
2022/04/28 15:07:53;;;;;;;;;;;;;;;;;;4995685;28;19914;-32
2022/04/28 15:10:19;;;;;;;;;;;;;;;;;;4995494;28;19914;-31
2022/04/28 15:12:46;;;;;;;;;;;;;;;;;;4995722;28;19910;-31
2022/04/28 15:15:13;;;;;;;;;;;;;;;;;;4995500;28;20316;-32
2022/04/28 15:17:39;;;;;;;;;;;;;;;;;;4995760;28;20289;-32
2022/04/28 15:20:05;;;;;;;;;;;;;;;;;;4998159;28;19914;-33
2022/04/28 15:22:31;;;;;;;;;;;;;;;;;;4999490;28;20266;-31
2022/04/28 15:24:57;;;;;;;;;;;;;;;;;;4999702;28;19914;-33
2022/04/28 15:27:23;;;;;;;;;;;;;;;;;;4999978;28;19914;-31
2022/04/28 15:29:49;;;;;;;;;;;;;;;;;;4999288;28;19949;-33
2022/04/28 15:32:15;;;;;;;;;;;;;;;;;;4999258;28;20004;-32
2022/04/28 15:34:42;;;;;;;;;;;;;;;;;;4999538;28;20013;-31
2022/04/28 15:37:08;;;;;;;;;;;;;;;;;;4999468;28;19949;-31
2022/04/28 15:39:34;;;;;;;;;;;;;;;;;;4999352;28;19939;-32
2022/04/28 15:42:00;;;;;;;;;;;;;;;;;;4999036;28;19917;-31
2022/04/28 15:44:26;;;;;;;;;;;;;;;;;;4998970;28;20019;-32
2022/04/28 15:46:52;;;;;;;;;;;;;;;;;;4998766;28;19922;-33
2022/04/28 15:49:18;;;;;;;;;;;;;;;;;;4999141;28;19948;-32
2022/04/28 15:51:44;;;;;;;;;;;;;;;;;;4998729;28;19949;-31
2022/04/28 15:54:10;;;;;;;;;;;;;;;;;;4998884;28;19949;-32
2022/04/28 15:56:37;;;;;;;;;;;;;;;;;;4999274;28;20004;-32
2022/04/28 15:59:03;;;;;;;;;;;;;;;;;;4998934;28;20249;-31
2022/04/28 16:01:29;;;;;;;;;;;;;;;;;;4998667;28;19913;-32
2022/04/28 16:03:55;;;;;;;;;;;;;;;;;;4999048;28;20435;-33
2022/04/28 16:06:22;;;;;;;;;;;;;;;;;;4981468;28;20049;-31
2022/04/28 16:08:48;;;;;;;;;;;;;;;;;;4998740;28;20291;-32
2022/04/28 16:11:14;;;;;;;;;;;;;;;;;;4998833;28;20422;-31
2022/04/28 16:13:40;;;;;;;;;;;;;;;;;;4998668;28;19971;-32
2022/04/28 16:16:06;;;;;;;;;;;;;;;;;;4998676;28;19918;-31
2022/04/28 16:18:32;;;;;;;;;;;;;;;;;;4998664;28;20259;-29
2022/04/28 16:20:57;;;;;;;;;;;;;;;;;;4998400;28;19996;-32
2022/04/28 16:23:23;;;;;;;;;;;;;;;;;;4998735;28;19924;-32
2022/04/28 16:25:49;;;;;;;;;;;;;;;;;;4998505;28;19914;-31
2022/04/28 16:28:15;;;;;;;;;;;;;;;;;;4998459;28;19918;-32
2022/04/28 16:30:42;;;;;;;;;;;;;;;;;;4998241;28;19914;-31
2022/04/28 16:33:07;;;;;;;;;;;;;;;;;;4998049;28;20260;-32
2022/04/28 16:35:33;;;;;;;;;;;;;;;;;;4998588;28;19949;-33
2022/04/28 16:38:00;;;;;;;;;;;;;;;;;;4980964;28;19945;-32
2022/04/28 16:40:26;;;;;;;;;;;;;;;;;;4998058;28;19913;-33
2022/04/28 16:42:52;;;;;;;;;;;;;;;;;;4997892;28;19913;-32
2022/04/28 16:45:18;;;;;;;;;;;;;;;;;;4998437;28;19924;-30
2022/04/28 16:47:44;;;;;;;;;;;;;;;;;;4997598;28;19932;-29
2022/04/28 16:50:09;;;;;;;;;;;;;;;;;;4997734;28;19971;-31
2022/04/28 16:52:35;;;;;;;;;;;;;;;;;;4997725;28;20004;-32
2022/04/28 16:55:01;;;;;;;;;;;;;;;;;;4997707;28;19918;-32
2022/04/28 16:57:27;;;;;;;;;;;;;;;;;;4997728;28;20265;-32
2022/04/28 16:59:53;;;;;;;;;;;;;;;;;;4997638;28;19980;-32
2022/04/28 17:02:19;;;;;;;;;;;;;;;;;;4997506;28;19909;-32
2022/04/28 17:04:47;;;;;;;;;;;;;;;;;;4997507;28;19936;-32
2022/04/28 17:07:13;;;;;;;;;;;;;;;;;;4997539;28;19914;-30
2022/04/28 17:09:41;;;;;;;;;;;;;;;;;;4997590;28;20012;-30
2022/04/28 17:12:07;;;;;;;;;;;;;;;;;;4997258;28;19910;-32
2022/04/28 17:14:36;;;;;;;;;;;;;;;;;;4997644;28;19964;-31
2022/04/28 17:17:02;;;;;;;;;;;;;;;;;;4997852;28;19910;-32
2022/04/28 17:19:30;;;;;;;;;;;;;;;;;;4997629;28;19925;-31
2022/04/28 17:21:56;;;;;;;;;;;;;;;;;;4997072;28;19914;-31
2022/04/28 17:24:22;;;;;;;;;;;;;;;;;;4997265;28;19996;-32
2022/04/28 17:26:48;;;;;;;;;;;;;;;;;;4997160;28;19917;-31
2022/04/28 17:29:14;;;;;;;;;;;;;;;;;;4997049;28;19936;-32
2022/04/28 17:31:40;;;;;;;;;;;;;;;;;;4997026;28;19920;-32
2022/04/28 17:34:07;;;;;;;;;;;;;;;;;;4996956;28;19910;-33
2022/04/28 17:36:33;;;;;;;;;;;;;;;;;;4997204;28;19914;-31
2022/04/28 17:38:59;;;;;;;;;;;;;;;;;;4996917;28;20037;-33
2022/04/28 17:41:25;;;;;;;;;;;;;;;;;;4996685;28;19917;-32
2022/04/28 17:43:51;;;;;;;;;;;;;;;;;;4996582;28;19914;-32
2022/04/28 17:46:17;;;;;;;;;;;;;;;;;;4996682;28;20368;-32
2022/04/28 17:48:43;;;;;;;;;;;;;;;;;;4996729;28;20250;-32